Time;durP1;ratioP1;P1;durP2;ratioP2;P2;SDS_P1;SDS_P2;PMS_P1;PMS_P2;Temp;Humidity;BMP_temperature;BMP_pressure;BME280_temperature;BME280_humidity;BME280_pressure;Samples;Min_cycle;Max_cycle;Signal;HPM_P1;HPM_P2
2024/03/29 00:02:16;;;;;;;12.85;6.70;;;;;;;5.88;48.85;99334.66;4893227;29;20546;-74
2024/03/29 00:04:42;;;;;;;13.70;7.05;;;;;;;5.58;48.66;99294.97;4884544;29;20049;-75
2024/03/29 00:07:09;;;;;;;17.88;8.27;;;;;;;5.60;48.98;99297.56;4892827;29;20036;-76
2024/03/29 00:09:36;;;;;;;14.52;6.68;;;;;;;5.67;48.78;99325.09;4877072;29;20044;-74
2024/03/29 00:12:02;;;;;;;16.52;7.13;;;;;;;5.60;49.20;99294.97;4893107;29;20040;-76
2024/03/29 00:14:30;;;;;;;14.18;6.95;;;;;;;5.59;49.53;99285.50;4892965;29;20045;-76
2024/03/29 00:16:56;;;;;;;16.45;7.10;;;;;;;5.53;49.29;99264.84;4894742;29;20048;-76
2024/03/29 00:19:25;;;;;;;16.33;7.38;;;;;;;5.78;49.21;99304.47;4895731;29;20055;-76
2024/03/29 00:21:51;;;;;;;14.63;7.43;;;;;;;5.20;49.68;99223.44;4878853;29;21936;-76
2024/03/29 00:24:17;;;;;;;14.68;7.47;;;;;;;5.47;49.07;99272.53;4895865;29;20539;-75
2024/03/29 00:26:44;;;;;;;17.13;7.15;;;;;;;5.26;49.32;99230.31;4889460;29;20091;-75
2024/03/29 00:29:13;;;;;;;13.95;6.63;;;;;;;5.60;49.84;99276.03;4877495;29;20200;-77
2024/03/29 00:31:40;;;;;;;16.55;7.10;;;;;;;5.84;49.61;99290.75;4877071;29;20045;-76
2024/03/29 00:34:09;;;;;;;15.02;7.25;;;;;;;5.78;49.23;99265.75;4879549;29;20068;-75
2024/03/29 00:36:36;;;;;;;14.75;6.70;;;;;;;5.96;49.03;99284.75;4877901;29;20056;-77
2024/03/29 00:39:02;;;;;;;15.70;7.20;;;;;;;5.99;49.79;99283.00;4892558;29;20586;-76
2024/03/29 00:41:28;;;;;;;13.43;6.70;;;;;;;5.81;49.70;99245.09;4877509;29;20076;-78
2024/03/29 00:43:55;;;;;;;14.95;6.88;;;;;;;6.09;49.68;99280.47;4878256;29;20055;-77
2024/03/29 00:46:21;;;;;;;12.77;6.90;;;;;;;5.86;49.27;99215.00;4877871;29;21650;-72
2024/03/29 00:48:50;;;;;;;17.42;6.90;;;;;;;6.12;49.19;99254.63;4878037;29;20107;-76
2024/03/29 00:51:26;;;;;;;17.10;7.85;;;;;;;5.91;48.95;99230.47;4892977;29;20044;-76
2024/03/29 00:53:54;;;;;;;17.50;7.18;;;;;;;6.13;49.00;99262.41;4867380;29;20055;-76
2024/03/29 00:56:20;;;;;;;15.68;7.00;;;;;;;6.15;49.15;99262.38;4875287;29;20068;-75
2024/03/29 00:58:46;;;;;;;14.68;7.72;;;;;;;6.24;49.27;99256.34;4875762;29;20048;-73
2024/03/29 01:01:13;;;;;;;18.05;7.70;;;;;;;6.04;48.98;99241.72;4890637;29;20067;-75
2024/03/29 01:03:39;;;;;;;15.50;7.50;;;;;;;5.77;49.09;99225.28;4874403;29;20053;-76
2024/03/29 01:06:05;;;;;;;18.05;7.65;;;;;;;5.88;49.42;99245.97;4875669;29;20051;-75
2024/03/29 01:08:31;;;;;;;18.60;7.97;;;;;;;5.76;49.39;99236.47;4890913;29;20099;-76
2024/03/29 01:10:57;;;;;;;15.27;7.65;;;;;;;5.87;49.78;99257.16;4893159;29;20041;-74
2024/03/29 01:13:23;;;;;;;14.40;7.40;;;;;;;5.54;49.37;99208.03;4884054;29;20099;-76
2024/03/29 01:15:49;;;;;;;17.05;8.07;;;;;;;5.86;49.82;99243.38;4876553;29;20051;-76
2024/03/29 01:18:16;;;;;;;18.02;8.68;;;;;;;5.85;49.82;99238.22;4891502;29;20068;-75
2024/03/29 01:20:42;;;;;;;21.20;8.15;;;;;;;5.96;49.71;99228.78;4891214;29;20647;-76
2024/03/29 01:23:08;;;;;;;19.58;8.00;;;;;;;5.83;49.50;99190.91;4892125;29;20044;-74
2024/03/29 01:25:35;;;;;;;17.38;7.68;;;;;;;5.83;49.30;99208.97;4891439;29;20056;-76
2024/03/29 01:28:01;;;;;;;18.00;7.85;;;;;;;5.79;49.31;99200.34;4845490;29;20051;-75
2024/03/29 01:30:27;;;;;;;18.08;8.32;;;;;;;5.47;50.12;99153.84;4876148;29;20407;-75
2024/03/29 01:32:53;;;;;;;17.48;7.55;;;;;;;5.54;49.91;99168.47;4890365;29;20064;-75
2024/03/29 01:35:19;;;;;;;15.20;7.60;;;;;;;5.95;49.63;99221.88;4860200;29;20147;-74
2024/03/29 01:37:45;;;;;;;18.55;7.40;;;;;;;5.85;49.90;99197.78;4891083;29;20100;-77
2024/03/29 01:40:11;;;;;;;16.38;7.22;;;;;;;5.83;49.65;99203.81;4875706;29;20049;-76
2024/03/29 01:42:38;;;;;;;13.48;7.30;;;;;;;5.83;49.89;99203.81;4890787;29;20048;-77
2024/03/29 01:45:05;;;;;;;15.85;7.40;;;;;;;5.96;49.95;99208.09;4859586;29;20044;-76
2024/03/29 01:47:31;;;;;;;19.10;7.82;;;;;;;5.87;50.51;99196.06;4875598;29;20068;-72
2024/03/29 01:49:58;;;;;;;14.45;7.40;;;;;;;5.75;49.99;99174.53;4875114;29;20044;-74
2024/03/29 01:52:27;;;;;;;17.00;7.45;;;;;;;5.80;50.00;99173.66;4892017;29;20036;-76
2024/03/29 01:54:56;;;;;;;13.85;6.82;;;;;;;5.86;49.69;99176.25;4891510;29;20040;-77
2024/03/29 01:57:25;;;;;;;22.92;7.72;;;;;;;5.80;49.82;99168.50;4877131;29;20051;-76
2024/03/29 01:59:52;;;;;;;17.63;7.82;;;;;;;5.90;49.89;99171.09;4876651;29;21201;-76
2024/03/29 02:02:18;;;;;;;15.18;7.72;;;;;;;5.94;49.69;99165.91;4891519;29;20044;-75
2024/03/29 02:04:45;;;;;;;13.48;7.07;;;;;;;5.86;49.86;99160.75;4890928;29;20051;-75
2024/03/29 02:07:12;;;;;;;16.65;7.50;;;;;;;5.71;50.02;99145.28;4893624;29;20627;-81
2024/03/29 02:09:38;;;;;;;13.15;6.65;;;;;;;5.83;49.96;99171.09;4894197;29;20372;-75
2024/03/29 02:12:05;;;;;;;16.83;7.72;;;;;;;5.91;49.66;99173.66;4892316;29;20043;-76
2024/03/29 02:14:31;;;;;;;15.43;8.02;;;;;;;6.05;49.58;99173.69;4894787;29;20052;-79
2024/03/29 02:16:57;;;;;;;15.65;7.15;;;;;;;5.82;49.79;99147.84;4880358;29;20059;-78
2024/03/29 02:19:23;;;;;;;15.23;7.80;;;;;;;5.87;49.63;99167.66;4891971;29;20139;-78
2024/03/29 02:21:55;;;;;;;15.32;7.43;;;;;;;5.82;50.20;99128.03;4880728;29;20060;-79
2024/03/29 02:24:21;;;;;;;16.35;6.75;;;;;;;5.85;50.32;99132.34;4895518;29;20080;-74
2024/03/29 02:26:48;;;;;;;14.90;7.40;;;;;;;5.75;50.03;99120.31;4897969;29;20064;-74
2024/03/29 02:29:15;;;;;;;15.43;7.55;;;;;;;5.96;49.85;99140.09;4896168;29;20515;-73
2024/03/29 02:31:41;;;;;;;12.77;7.45;;;;;;;5.98;49.87;99146.97;4886984;29;20407;-74
2024/03/29 02:34:09;;;;;;;13.15;7.30;;;;;;;5.79;49.83;99081.56;4896883;29;20052;-78
2024/03/29 02:36:35;;;;;;;14.65;7.13;;;;;;;6.12;50.08;99136.69;4865056;29;20045;-76
2024/03/29 02:39:01;;;;;;;11.13;6.53;;;;;;;6.00;49.65;99132.38;4898810;29;20051;-77
2024/03/29 02:41:31;;;;;;;13.68;6.32;;;;;;;5.82;49.04;99112.56;4880100;29;20115;-76
2024/03/29 02:43:58;;;;;;;12.50;6.88;;;;;;;5.75;50.56;99115.16;4882377;29;20524;-76
2024/03/29 02:46:24;;;;;;;13.75;6.88;;;;;;;5.80;50.08;99134.09;4879648;29;20388;-77
2024/03/29 02:48:51;;;;;;;13.32;6.60;;;;;;;5.72;49.43;99124.59;4876753;29;20083;-77
2024/03/29 02:51:17;;;;;;;13.27;6.78;;;;;;;5.75;50.21;99125.47;4879210;29;20036;-76
2024/03/29 02:53:43;;;;;;;12.73;6.53;;;;;;;5.67;50.85;99079.00;4863815;29;20075;-79
2024/03/29 02:56:09;;;;;;;13.77;6.20;;;;;;;6.05;49.99;99123.78;4863605;29;20045;-77
2024/03/29 02:58:35;;;;;;;13.75;7.18;;;;;;;6.12;50.37;99120.31;4895815;29;20044;-77
2024/03/29 03:01:09;;;;;;;13.05;7.13;;;;;;;6.13;50.32;99109.97;4894329;29;20037;-76
2024/03/29 03:03:35;;;;;;;14.13;6.50;;;;;;;6.14;50.04;99116.88;4896305;29;20069;-77
2024/03/29 03:06:02;;;;;;;15.85;7.38;;;;;;;6.18;49.73;99120.28;4864313;29;20047;-77
2024/03/29 03:11:17;;;;;;;11.52;6.82;;;;;;;6.19;49.65;99096.19;4903827;29;20076;-76
2024/03/29 03:13:43;;;;;;;14.82;6.43;;;;;;;6.18;49.37;99092.72;4881445;29;20044;-78
2024/03/29 03:16:09;;;;;;;17.00;7.25;;;;;;;6.25;49.99;99082.38;4897314;29;20048;-77
2024/03/29 03:18:36;;;;;;;13.48;5.90;;;;;;;6.21;49.02;99099.63;4896634;29;20041;-78
2024/03/29 03:21:03;;;;;;;12.13;6.50;;;;;;;5.82;49.38;99029.94;4879204;29;20049;-77
2024/03/29 03:23:29;;;;;;;12.07;5.93;;;;;;;5.97;49.48;99044.53;4888268;29;20069;-77
2024/03/29 03:25:57;;;;;;;14.45;6.55;;;;;;;6.07;48.48;99088.47;4878141;29;20499;-78
2024/03/29 03:28:23;;;;;;;13.32;7.07;;;;;;;5.68;49.51;99029.94;4860406;29;20127;-77
2024/03/29 03:30:52;;;;;;;12.77;6.05;;;;;;;6.01;50.06;99089.31;4870509;29;20069;-77
2024/03/29 03:33:19;;;;;;;10.43;6.03;;;;;;;5.87;49.64;99076.38;4879436;29;21868;-76
2024/03/29 03:35:46;;;;;;;13.23;6.00;;;;;;;5.70;49.58;99050.63;4895144;29;20044;-76
2024/03/29 03:38:13;;;;;;;12.25;6.35;;;;;;;5.95;50.37;99087.59;4871780;29;20059;-76
2024/03/29 03:40:39;;;;;;;11.82;6.40;;;;;;;5.73;49.88;99064.38;4878753;29;20408;-78
2024/03/29 03:43:06;;;;;;;13.52;6.38;;;;;;;5.33;49.98;99005.03;4878285;29;20127;-76
2024/03/29 03:45:40;;;;;;;11.77;6.68;;;;;;;5.85;50.55;99080.69;4895906;29;20049;-78
2024/03/29 03:48:09;;;;;;;13.18;5.72;;;;;;;5.65;50.10;99036.84;4895583;29;20044;-79
2024/03/29 03:50:35;;;;;;;15.35;6.30;;;;;;;5.75;50.44;99055.75;4895704;29;20048;-77
2024/03/29 03:53:01;;;;;;;14.73;6.78;;;;;;;5.50;49.99;99015.38;4878757;29;20040;-76
2024/03/29 03:55:27;;;;;;;12.23;6.32;;;;;;;5.77;49.93;99035.97;4893528;29;20044;-77
2024/03/29 03:57:54;;;;;;;12.13;6.28;;;;;;;6.15;50.60;99068.63;4894054;29;20051;-77
2024/03/29 04:00:21;;;;;;;13.35;6.47;;;;;;;5.85;49.67;99008.41;4894885;29;20095;-75
2024/03/29 04:02:52;;;;;;;9.30;5.80;;;;;;;5.92;49.49;98999.78;4876744;29;20139;-75
2024/03/29 04:05:19;;;;;;;11.60;5.90;;;;;;;6.40;49.49;99064.22;4847734;29;20052;-75
2024/03/29 04:07:46;;;;;;;11.00;6.18;;;;;;;6.39;49.82;99026.38;4878854;29;20048;-76
2024/03/29 04:10:12;;;;;;;9.88;5.78;;;;;;;6.57;48.85;99055.56;4894487;29;20055;-77
2024/03/29 04:12:39;;;;;;;11.90;5.47;;;;;;;6.40;49.62;99037.53;4881233;29;20072;-79
2024/03/29 04:15:06;;;;;;;12.10;5.43;;;;;;;6.45;49.33;99021.16;4891706;29;20040;-79
2024/03/29 04:17:32;;;;;;;13.68;5.43;;;;;;;6.61;49.58;99031.44;4897582;29;20085;-77
2024/03/29 04:19:59;;;;;;;10.60;5.85;;;;;;;6.53;48.88;99028.84;4864810;29;20045;-79
2024/03/29 04:22:29;;;;;;;12.68;5.85;;;;;;;6.34;49.09;99002.25;4881280;29;20312;-77
2024/03/29 04:24:55;;;;;;;10.90;6.03;;;;;;;6.58;49.39;99027.13;4879013;29;20048;-77
2024/03/29 04:27:22;;;;;;;11.70;5.53;;;;;;;6.70;48.99;99005.50;4895234;29;20455;-80
2024/03/29 04:29:55;;;;;;;10.07;5.88;;;;;;;7.05;49.20;99013.91;4878900;29;20048;-79
2024/03/29 04:32:21;;;;;;;10.45;5.60;;;;;;;7.08;48.82;98983.69;4879899;29;20072;-79
2024/03/29 04:34:48;;;;;;;9.98;5.60;;;;;;;7.36;48.41;99027.47;4883452;29;20072;-82
2024/03/29 04:37:15;;;;;;;11.63;5.45;;;;;;;7.28;48.18;99008.59;4899045;29;20135;-81
2024/03/29 04:39:44;;;;;;;9.10;4.75;;;;;;;7.50;47.75;99016.16;4882396;29;20059;-80
2024/03/29 04:42:11;;;;;;;11.73;5.95;;;;;;;7.56;48.10;99007.47;4879643;29;20534;-79
2024/03/29 04:44:40;;;;;;;11.68;6.03;;;;;;;7.64;47.86;99001.34;4882595;29;20055;-79
2024/03/29 04:47:07;;;;;;;12.00;5.10;;;;;;;7.51;47.76;98985.06;4895334;29;20048;-79
2024/03/29 04:49:35;;;;;;;12.07;5.80;;;;;;;7.35;47.90;98936.91;4887832;29;20048;-78
2024/03/29 04:52:01;;;;;;;9.32;5.13;;;;;;;7.33;47.28;98907.59;4877241;29;20036;-75
2024/03/29 04:54:27;;;;;;;13.68;6.72;;;;;;;7.61;46.83;98982.41;4891091;29;20196;-76
2024/03/29 04:56:53;;;;;;;9.55;5.40;;;;;;;7.19;47.37;98972.41;4875889;29;20419;-74
2024/03/29 04:59:20;;;;;;;8.60;5.28;;;;;;;7.09;47.27;98962.13;4881515;29;20084;-77
2024/03/29 05:01:50;;;;;;;10.35;5.15;;;;;;;7.44;47.61;98983.41;4893954;29;20135;-80
2024/03/29 05:04:18;;;;;;;8.85;5.32;;;;;;;7.64;47.87;98975.47;4893704;29;20052;-78
2024/03/29 05:06:45;;;;;;;10.43;5.03;;;;;;;7.77;47.11;98971.00;4892947;29;20056;-78
2024/03/29 05:09:11;;;;;;;12.93;5.00;;;;;;;7.38;46.61;98950.69;4893747;29;20048;-79
2024/03/29 05:11:38;;;;;;;13.63;5.43;;;;;;;7.05;47.43;98902.69;4881631;29;20044;-79
2024/03/29 05:14:04;;;;;;;9.35;5.10;;;;;;;7.09;47.37;98946.59;4896020;29;20045;-79
2024/03/29 05:16:30;;;;;;;9.95;5.40;;;;;;;6.98;47.98;98914.81;4870476;29;20088;-77
2024/03/29 05:18:56;;;;;;;17.42;6.35;;;;;;;7.37;47.51;98930.84;4895620;29;20040;-76
2024/03/29 05:21:23;;;;;;;12.18;5.70;;;;;;;7.34;47.45;98919.66;4894848;29;20040;-77
2024/03/29 05:23:49;;;;;;;16.90;6.55;;;;;;;7.49;47.35;98936.78;4868434;29;20418;-84
2024/03/29 05:26:15;;;;;;;16.23;6.55;;;;;;;7.75;47.60;98948.56;4862427;29;20580;-74
2024/03/29 05:28:41;;;;;;;10.60;5.47;;;;;;;7.18;47.06;98864.63;4859098;29;20148;-73
2024/03/29 05:31:15;;;;;;;11.65;4.97;;;;;;;7.47;47.10;98921.25;4882685;29;20068;-75
2024/03/29 05:33:41;;;;;;;10.35;5.22;;;;;;;7.64;47.43;98921.06;4872173;29;20044;-73
2024/03/29 05:36:10;;;;;;;12.98;5.05;;;;;;;7.43;46.34;98896.25;4873444;29;20466;-74
2024/03/29 05:38:37;;;;;;;10.63;4.55;;;;;;;7.62;46.87;98922.81;4888444;29;20048;-72
2024/03/29 05:41:04;;;;;;;11.73;4.90;;;;;;;7.72;47.00;98930.50;4884152;29;20558;-73
2024/03/29 05:43:30;;;;;;;9.73;4.28;;;;;;;7.96;46.50;98955.25;4874971;29;20412;-74
2024/03/29 05:45:56;;;;;;;10.02;4.28;;;;;;;7.76;46.73;98926.97;4873522;29;20107;-75
2024/03/29 05:48:22;;;;;;;12.23;4.82;;;;;;;7.97;46.23;98964.75;4872664;29;20393;-75
2024/03/29 05:50:48;;;;;;;11.23;4.28;;;;;;;7.73;45.23;98947.72;4874142;29;20048;-74
2024/03/29 05:53:14;;;;;;;13.30;4.68;;;;;;;7.51;46.66;98925.53;4887637;29;20055;-75
2024/03/29 05:55:43;;;;;;;10.57;4.00;;;;;;;7.47;47.01;98904.88;4874526;29;20075;-75
2024/03/29 05:58:10;;;;;;;18.48;5.00;;;;;;;7.86;46.62;98949.31;4857430;29;20055;-74
2024/03/29 06:00:36;;;;;;;11.63;4.53;;;;;;;7.74;46.57;98939.97;4884410;29;20072;-74
2024/03/29 06:03:02;;;;;;;9.75;4.40;;;;;;;7.84;46.35;98894.94;4874594;29;20187;-75
2024/03/29 06:05:39;;;;;;;17.35;4.97;;;;;;;7.94;45.91;98879.28;4874019;29;21493;-78
2024/03/29 06:08:06;;;;;;;9.65;4.28;;;;;;;8.34;45.63;98948.72;4874568;29;20048;-77
2024/03/29 06:10:36;;;;;;;9.10;4.00;;;;;;;8.21;45.55;98958.41;4881276;29;20052;-75
2024/03/29 06:13:17;;;;;;;14.77;3.92;;;;;;;7.92;45.75;98906.94;4887849;29;20041;-75
2024/03/29 06:18:31;;;;;;;10.00;4.25;;;;;;;8.10;45.35;98939.56;4855282;29;20507;-75
2024/03/29 06:20:58;;;;;;;7.38;4.10;;;;;;;8.28;45.81;98947.09;4879032;29;20072;-76
2024/03/29 06:23:24;;;;;;;10.88;4.38;;;;;;;8.50;45.23;98951.13;4858265;29;20078;-75
2024/03/29 06:25:51;;;;;;;11.93;4.07;;;;;;;8.43;45.63;98925.28;4889283;29;20412;-76
2024/03/29 06:28:17;;;;;;;8.70;4.30;;;;;;;8.62;45.00;98957.88;4870147;29;20075;-77
2024/03/29 06:30:43;;;;;;;12.02;5.30;;;;;;;8.46;44.80;98955.47;4891625;29;20085;-73
2024/03/29 06:33:36;;;;;;;13.90;4.28;;;;;;;8.35;44.96;98947.00;4866811;29;20108;-76
2024/03/29 06:36:11;;;;;;;9.23;4.40;;;;;;;8.19;45.68;98878.97;4898188;29;20131;-76
2024/03/29 06:38:37;;;;;;;11.50;4.30;;;;;;;8.36;44.79;98913.28;4888739;29;20057;-75
2024/03/29 06:41:06;;;;;;;7.03;3.70;;;;;;;8.55;44.88;98946.75;4888208;29;20040;-77
2024/03/29 06:43:32;;;;;;;9.82;3.97;;;;;;;8.06;44.16;98878.28;4872335;29;20552;-78
2024/03/29 06:46:03;;;;;;;10.23;4.95;;;;;;;8.37;44.75;98896.84;4872665;29;20048;-75
2024/03/29 06:48:32;;;;;;;8.57;4.38;;;;;;;8.82;44.68;98934.25;4891355;29;20180;-77
2024/03/29 06:50:59;;;;;;;13.23;4.28;;;;;;;8.78;44.24;98958.53;4876224;29;20082;-74
2024/03/29 06:53:27;;;;;;;10.98;4.78;;;;;;;8.61;44.54;98904.34;4875468;29;20072;-75
2024/03/29 06:55:56;;;;;;;12.15;4.55;;;;;;;8.90;44.26;98942.78;4888281;29;20079;-75
2024/03/29 06:58:25;;;;;;;9.85;4.47;;;;;;;8.58;44.19;98937.22;4892099;29;20052;-74
2024/03/29 07:00:54;;;;;;;;;;;;;;;8.44;44.78;98939.97;4877176;29;20464;-76
2024/03/29 07:03:19;;;;;;;9.32;4.20;;;;;;;8.27;45.18;98929.81;4895118;29;19935;-78
2024/03/29 07:05:46;;;;;;;10.20;4.65;;;;;;;8.25;44.82;98941.09;4894692;29;20085;-75
2024/03/29 07:08:12;;;;;;;10.85;4.35;;;;;;;8.34;44.47;98930.59;4895311;29;20044;-79
2024/03/29 07:10:39;;;;;;;7.25;3.95;;;;;;;8.33;45.31;98918.50;4879486;29;20048;-77
2024/03/29 07:13:10;;;;;;;11.43;4.40;;;;;;;8.57;45.11;98927.72;4879322;29;20088;-78
2024/03/29 07:15:36;;;;;;;9.05;4.70;;;;;;;8.18;44.71;98859.94;4885487;29;20063;-76
2024/03/29 07:18:11;;;;;;;12.82;4.85;;;;;;;8.55;44.94;98936.38;4892687;29;20045;-74
2024/03/29 07:20:47;;;;;;;16.35;4.82;;;;;;;8.03;44.87;98861.03;4864200;29;20057;-75
2024/03/29 07:23:14;;;;;;;9.57;4.63;;;;;;;8.21;44.96;98909.16;4880371;29;20191;-77
2024/03/29 07:25:41;;;;;;;10.73;4.57;;;;;;;8.37;45.56;98924.53;4878652;29;20076;-78
2024/03/29 07:28:07;;;;;;;11.88;4.00;;;;;;;8.48;45.22;98907.09;4879934;29;20511;-76
2024/03/29 07:30:37;;;;;;;9.85;4.90;;;;;;;8.73;44.89;98906.72;4882883;29;20230;-78
2024/03/29 07:33:15;;;;;;;16.20;4.68;;;;;;;8.43;44.73;98860.47;4901176;29;20040;-78
2024/03/29 07:35:42;;;;;;;12.27;5.18;;;;;;;8.73;44.98;98912.75;4904740;29;20055;-80
2024/03/29 07:38:08;;;;;;;17.73;4.82;;;;;;;8.42;44.48;98897.66;4901942;29;20097;-82
2024/03/29 07:40:37;;;;;;;8.77;4.60;;;;;;;8.05;45.27;98877.44;4904197;29;20045;-80
2024/03/29 07:43:06;;;;;;;;;;;;;;;8.24;45.41;98908.28;4899839;29;20043;-80
2024/03/29 07:45:32;;;;;;;12.05;4.50;;;;;;;8.26;45.18;98909.13;4885862;29;19919;-81
2024/03/29 07:47:58;;;;;;;11.60;5.05;;;;;;;8.03;45.32;98899.91;4891467;29;20459;-82
2024/03/29 07:50:24;;;;;;;12.88;4.82;;;;;;;7.73;45.28;98867.44;4896372;29;20040;-82
2024/03/29 07:52:50;;;;;;;8.65;5.07;;;;;;;7.31;45.59;98816.19;4905296;29;20037;-81
2024/03/29 07:55:16;;;;;;;13.07;4.63;;;;;;;7.57;46.53;98862.47;4882108;29;20052;-82
2024/03/29 07:57:43;;;;;;;13.68;4.80;;;;;;;7.78;46.47;98894.16;4894674;29;20059;-80
2024/03/29 08:00:10;;;;;;;9.75;5.10;;;;;;;7.73;46.54;98878.69;4863891;29;20107;-80
2024/03/29 08:02:38;;;;;;;13.43;6.07;;;;;;;7.48;46.39;98870.34;4878467;29;20040;-80
2024/03/29 08:05:05;;;;;;;7.85;5.05;;;;;;;7.61;47.77;98905.56;4895849;29;20469;-81
2024/03/29 08:07:32;;;;;;;10.68;5.15;;;;;;;7.44;47.86;98892.81;4879354;29;20041;-80
2024/03/29 08:09:59;;;;;;;8.50;4.80;;;;;;;7.39;48.83;98882.50;4878475;29;20071;-80
2024/03/29 08:12:26;;;;;;;12.40;5.85;;;;;;;7.18;49.39;98885.31;4891677;29;20043;-81
2024/03/29 08:14:52;;;;;;;10.27;6.05;;;;;;;6.95;50.35;98857.94;4898046;29;20059;-77
2024/03/29 08:17:18;;;;;;;11.02;5.40;;;;;;;7.06;50.83;98873.34;4881191;29;20057;-77
2024/03/29 08:19:44;;;;;;;10.00;5.28;;;;;;;7.20;50.58;98874.06;4882166;29;20048;-74
2024/03/29 08:22:10;;;;;;;9.10;5.70;;;;;;;7.18;51.27;98852.50;4896608;29;20043;-74
2024/03/29 08:24:37;;;;;;;9.98;5.50;;;;;;;7.36;51.62;98851.47;4894944;29;20048;-77
2024/03/29 08:27:06;;;;;;;12.80;5.80;;;;;;;7.66;51.05;98869.25;4896460;29;20429;-77
2024/03/29 08:29:32;;;;;;;9.38;5.63;;;;;;;7.61;50.56;98873.66;4898130;29;20464;-81
2024/03/29 08:31:58;;;;;;;7.35;4.95;;;;;;;7.68;50.70;98888.22;4881298;29;20036;-74
2024/03/29 08:34:24;;;;;;;8.32;5.85;;;;;;;7.39;50.56;98829.91;4896011;29;20068;-85
2024/03/29 08:36:53;;;;;;;8.02;5.63;;;;;;;7.53;50.67;98869.41;4891810;29;20052;-76
2024/03/29 08:39:19;;;;;;;8.20;5.45;;;;;;;7.52;51.13;98866.81;4890441;29;20052;-74
2024/03/29 08:41:45;;;;;;;11.05;6.50;;;;;;;7.62;50.49;98883.13;4873008;29;20079;-74
2024/03/29 08:44:11;;;;;;;12.18;5.60;;;;;;;7.78;50.91;98888.97;4876391;29;20079;-74
2024/03/29 08:46:37;;;;;;;12.50;5.93;;;;;;;7.73;50.67;98863.13;4875457;29;20060;-73
2024/03/29 08:49:03;;;;;;;9.50;5.43;;;;;;;7.88;49.72;98888.00;4884340;29;20052;-76
2024/03/29 08:51:29;;;;;;;9.60;5.75;;;;;;;8.03;50.17;98888.66;4892826;29;20047;-74
2024/03/29 08:53:57;;;;;;;7.85;5.03;;;;;;;8.18;50.21;98885.88;4870894;29;20067;-76
2024/03/29 08:56:24;;;;;;;11.82;5.60;;;;;;;8.09;49.20;98881.66;4892136;29;20127;-76
2024/03/29 08:58:50;;;;;;;9.90;5.43;;;;;;;7.81;49.80;98827.66;4868935;29;20048;-76
2024/03/29 09:01:17;;;;;;;8.75;5.75;;;;;;;8.07;49.67;98854.06;4852126;29;20043;-72
2024/03/29 09:03:44;;;;;;;12.35;5.75;;;;;;;8.07;48.88;98869.63;4860846;29;20062;-75
2024/03/29 09:06:10;;;;;;;11.30;6.50;;;;;;;7.75;49.29;98837.22;4875894;29;20040;-73
2024/03/29 09:08:36;;;;;;;10.45;5.97;;;;;;;7.78;49.49;98874.31;4877225;29;20051;-82
2024/03/29 09:11:03;;;;;;;12.55;6.43;;;;;;;7.75;49.90;98863.97;4893044;29;20443;-77
2024/03/29 09:13:33;;;;;;;13.25;6.03;;;;;;;7.68;49.23;98857.16;4886249;29;20044;-78
2024/03/29 09:16:01;;;;;;;9.23;6.25;;;;;;;7.44;50.08;98827.25;4894570;29;20150;-77
2024/03/29 09:18:28;;;;;;;12.60;6.70;;;;;;;7.65;50.38;98862.38;4877283;29;20052;-76
2024/03/29 09:20:58;;;;;;;11.45;6.10;;;;;;;7.59;50.02;98829.63;4874733;29;20964;-75
2024/03/29 09:23:28;;;;;;;8.63;6.28;;;;;;;7.77;50.03;98851.88;4866675;29;20048;-74
2024/03/29 09:25:57;;;;;;;10.15;5.95;;;;;;;8.02;49.89;98845.50;4876443;29;20073;-79
2024/03/29 09:28:24;;;;;;;10.95;6.32;;;;;;;8.46;49.22;98850.94;4892540;29;20472;-77
2024/03/29 09:30:56;;;;;;;8.02;5.68;;;;;;;8.18;48.76;98823.66;4889979;29;20045;-76
2024/03/29 09:33:23;;;;;;;11.07;6.15;;;;;;;8.43;48.59;98857.00;4858915;29;20048;-78
2024/03/29 09:35:51;;;;;;;8.30;6.10;;;;;;;8.29;48.74;98837.34;4873795;29;20403;-75
2024/03/29 09:38:20;;;;;;;10.77;5.83;;;;;;;8.37;48.85;98815.63;4872011;29;20095;-77
2024/03/29 09:40:50;;;;;;;11.52;6.63;;;;;;;8.70;48.69;98849.72;4856606;29;20051;-76
2024/03/29 09:43:17;;;;;;;10.07;5.97;;;;;;;8.57;48.86;98798.06;4872927;29;20116;-77
2024/03/29 09:45:44;;;;;;;9.52;5.80;;;;;;;8.47;47.82;98790.41;4857514;29;20707;-76
2024/03/29 09:48:12;;;;;;;11.70;6.75;;;;;;;8.28;47.72;98816.63;4889772;29;20725;-76
2024/03/29 09:50:38;;;;;;;11.20;6.10;;;;;;;8.37;48.45;98841.56;4873549;29;20052;-77
2024/03/29 09:53:08;;;;;;;9.93;6.45;;;;;;;8.35;48.46;98867.50;4891298;29;20064;-79
2024/03/29 09:55:36;;;;;;;12.45;6.57;;;;;;;8.05;48.46;98820.44;4890535;29;20052;-77
2024/03/29 09:58:03;;;;;;;11.85;6.88;;;;;;;8.17;48.91;98855.66;4875079;29;20515;-77
2024/03/29 10:00:29;;;;;;;13.48;6.47;;;;;;;8.30;49.11;98845.97;4874748;29;20772;-75
2024/03/29 10:03:00;;;;;;;9.48;6.25;;;;;;;8.36;48.98;98824.28;4890490;29;20136;-78
2024/03/29 10:05:29;;;;;;;10.63;6.27;;;;;;;8.35;48.69;98823.44;4872463;29;20407;-76
2024/03/29 10:07:56;;;;;;;12.15;7.00;;;;;;;8.36;48.88;98832.91;4889276;29;20058;-77
2024/03/29 10:10:23;;;;;;;10.10;6.50;;;;;;;8.07;48.35;98786.72;4890385;29;20040;-78
2024/03/29 10:12:49;;;;;;;12.45;7.18;;;;;;;8.29;48.30;98816.59;4875001;29;20052;-77
2024/03/29 10:15:16;;;;;;;13.02;7.15;;;;;;;8.13;48.71;98777.09;4861628;29;20089;-77
2024/03/29 10:17:46;;;;;;;11.02;6.78;;;;;;;8.38;48.76;98810.41;4891171;29;20542;-77
2024/03/29 10:20:15;;;;;;;13.73;6.78;;;;;;;8.65;48.98;98810.88;4859077;29;20048;-76
2024/03/29 10:22:43;;;;;;;11.10;6.63;;;;;;;8.91;48.60;98788.84;4857706;29;20062;-73
2024/03/29 10:25:13;;;;;;;11.70;6.90;;;;;;;9.07;48.35;98775.56;4891680;29;20419;-74
2024/03/29 10:27:40;;;;;;;14.15;7.00;;;;;;;9.15;47.38;98777.13;4890637;29;20123;-73
2024/03/29 10:30:11;;;;;;;10.98;6.68;;;;;;;9.35;47.22;98796.63;4883718;29;20048;-75
2024/03/29 10:32:41;;;;;;;11.80;7.07;;;;;;;9.43;47.96;98779.19;4874982;29;20137;-71
2024/03/29 10:35:09;;;;;;;12.68;7.15;;;;;;;9.97;47.15;98808.34;4889992;29;20053;-75
2024/03/29 10:37:43;;;;;;;12.32;7.35;;;;;;;10.01;46.80;98796.97;4876689;29;20056;-76
2024/03/29 10:40:10;;;;;;;12.63;6.93;;;;;;;10.14;46.75;98758.56;4891032;29;20503;-72
2024/03/29 10:42:40;;;;;;;11.52;6.35;;;;;;;10.67;46.27;98791.97;4894010;29;20555;-78
2024/03/29 10:45:07;;;;;;;13.82;6.95;;;;;;;10.80;45.79;98789.09;4893453;29;20514;-73
2024/03/29 10:47:34;;;;;;;11.02;7.32;;;;;;;11.05;45.08;98793.63;4861884;29;20043;-72
2024/03/29 10:50:00;;;;;;;13.80;7.88;;;;;;;10.70;45.32;98718.22;4892792;29;20048;-77
2024/03/29 10:52:28;;;;;;;10.90;7.00;;;;;;;10.98;44.10;98746.94;4893653;29;20087;-73
2024/03/29 10:54:55;;;;;;;12.25;7.35;;;;;;;10.87;44.38;98771.56;4876606;29;20086;-77
2024/03/29 10:57:26;;;;;;;10.57;7.00;;;;;;;10.45;44.91;98725.78;4892194;29;20068;-76
2024/03/29 11:00:18;;;;;;;13.32;7.95;;;;;;;11.10;45.21;98791.75;4892125;29;20055;-74
2024/03/29 11:03:02;;;;;;;13.95;7.53;;;;;;;11.47;44.42;98775.13;4891809;29;20041;-74
2024/03/29 11:05:32;;;;;;;10.07;7.25;;;;;;;11.37;44.04;98730.22;4879045;29;20044;-78
2024/03/29 11:08:01;;;;;;;13.27;7.53;;;;;;;11.51;43.83;98748.06;4895784;29;20108;-80
2024/03/29 11:10:46;;;;;;;12.40;6.97;;;;;;;11.44;43.36;98720.50;4879946;29;20071;-77
2024/03/29 11:13:22;;;;;;;15.02;7.82;;;;;;;11.54;44.04;98695.84;4882085;29;20064;-83
2024/03/29 11:15:50;;;;;;;17.42;9.63;;;;;;;11.78;43.17;98729.88;4902020;29;20036;-80
2024/03/29 11:18:20;;;;;;;11.25;7.10;;;;;;;11.66;42.69;98771.97;4851787;29;20436;-78
2024/03/29 11:20:51;;;;;;;11.65;7.82;;;;;;;11.44;43.35;98760.41;4849976;29;20045;-82
2024/03/29 11:23:21;;;;;;;13.65;7.95;;;;;;;11.78;44.01;98747.28;4891847;29;20670;-79
2024/03/29 11:25:57;;;;;;;16.35;8.73;;;;;;;11.43;43.17;98669.28;4894160;29;20500;-74
2024/03/29 11:28:29;;;;;;;12.38;8.48;;;;;;;11.92;43.39;98726.84;4892852;29;20127;-74
2024/03/29 11:31:04;;;;;;;13.25;8.05;;;;;;;12.27;42.76;98742.31;4877263;29;20052;-75
2024/03/29 11:33:37;;;;;;;17.35;9.98;;;;;;;12.22;42.53;98723.34;4892561;29;20047;-71
2024/03/29 11:36:18;;;;;;;15.00;8.88;;;;;;;12.62;42.94;98751.56;4877415;29;20082;-74
2024/03/29 11:38:45;;;;;;;13.67;8.13;;;;;;;12.76;42.13;98732.81;4876841;29;20535;-74
2024/03/29 11:41:14;;;;;;;11.90;8.25;;;;;;;12.59;41.91;98727.31;4877899;29;20051;-75
2024/03/29 11:43:43;;;;;;;14.70;8.23;;;;;;;12.20;42.14;98719.03;4873139;29;20050;-75